Sapucai-Mirim, Brazil
Current Conditions -  °F | °C
As of 3:00 AM on Wednesday 26 Nov 2014 (Local Time) from SBSJ Reporting Station
Scattered Clouds Scattered Clouds  
Wind Chill: 72°   Ceiling: Unl
Heat Index: 72°   Visibility: 5mi
Dew Point: 68°   Wind: 3mph
Humidity: 88%   Direction: 180°S
Pressure: 29.91"   Gusts: NA
Location:  22.75°S, 45.74°W
Report Text: SBSJ 260500Z 18003KT 8000 SCT020 22/20 Q1013
Loading
Personal Weather Stations






























Interactive Weather Map New forecast layout! Learn more

10-Day Weather Forecast

Advertisements
Track Severe Weather on mobile